Brive-Souillac

LFSL · Corrèze, Nouvelle-Aquitaine, 法国

罗盘
风向 的 风向 的 风向 到 风向 140° Brive-Souillac 11/29
风: 6 kt, 2 beaufort

5 kt

3 kt
改变
0 1.000 2.000 3.000 4.000 5.000
CAVOK
METAR LFSL 271200Z AUTO 14006KT 100V170 CAVOK 11/03 Q1020 NOSIG

METAR Brive-Souillac - LFSL/BVE

Brive-Souillac是,法国中的中型机场。 该机场有一条跑道: 11/29. 该领域的国际民航组织标志是LFSL 它的国际航空运输协会代码是BVE.

这份报告是针对2022年11月27日 13:00, 当地时间在Brive-Souillac进行的。

机场观察

风向为140°,速度为6 kt。 风向在100°和170°之间变化。

天气为CAVOK。这意味着在5.000 ft或MSA(最低安全高度)以下(以较高者为准)以下没有云。这也意味着没有观测到积雨云或高耸的积云,可见度为10 km 或者更多或更高。此外,不会有雾,降雨或其他重要天气。

温度和风寒是11 °C。 露点为3 °C,相对湿度为58%。 海平面上的气压为1020 hPa (QNH)。

白天

今天,太阳从08:07升起,在17:15降落。 这适用于Brive-Souillac,世界夏令时可能有所不同。 当地时间与世界标准时间之间的时差为+1 小时。 当前,没有夏令时有效。

公司介绍

我们没有关于这个机场的公司信息。

体会

到Vliegles.nl去找飞行课程,跳伞和其他飞行体验。 浏览页面,了解Brive-Souillac附近所有可用的活动。 你也可以使用搜索功能来寻找你所在地附近的特定飞行课程、跳伞或其他飞行体验。

跑道

Id 标题 侧风 逆风 侧风 %
11/29 115°-295° 3 kt 5 kt 42 %

逆风成分最大的方向会被突出显示,并用于横风计算。 这并不一定意味着这个方向在使用。

温度 & 天气

温度 11 °C
露点 3 °C
相对湿度 58%
Kp-index 2 (0-9)

白天

日出
08:07
中午
12:41
日落
17:15 (3:50)

小工具

你想在你的网站上有一个关于Brive-Souillac的当前航空天气(METAR)的小部件吗?

显示HTML代码

我们和第三方通过cookies跟踪您在我们网站上的互联网行为。如果你继续,我们认为你同意我们的饼干政策